sensor_id;sensor_type;location;lat;lon;timestamp;pressure;altitude;pressure_sealevel;temperature;humidity
818;BME280;391;51.052;6.954;2023-04-30T00:01:15;101519.13;;;11.64;79.72
818;BME280;391;51.052;6.954;2023-04-30T00:03:18;101527.97;;;11.67;79.81
818;BME280;391;51.052;6.954;2023-04-30T00:05:22;101522.75;;;11.67;79.25
818;BME280;391;51.052;6.954;2023-04-30T00:07:26;101521.78;;;11.65;79.24
818;BME280;391;51.052;6.954;2023-04-30T00:09:29;101524.28;;;11.62;79.27
818;BME280;391;51.052;6.954;2023-04-30T00:11:34;101528.56;;;11.60;79.34
818;BME280;391;51.052;6.954;2023-04-30T00:13:38;101528.56;;;11.60;79.13
818;BME280;391;51.052;6.954;2023-04-30T00:15:43;101528.25;;;11.53;79.00
818;BME280;391;51.052;6.954;2023-04-30T00:17:47;101525.72;;;11.54;78.78
818;BME280;391;51.052;6.954;2023-04-30T00:19:50;101525.66;;;11.53;78.99
818;BME280;391;51.052;6.954;2023-04-30T00:21:54;101527.34;;;11.51;79.04
818;BME280;391;51.052;6.954;2023-04-30T00:23:59;101529.03;;;11.50;78.72
818;BME280;391;51.052;6.954;2023-04-30T00:26:03;101524.53;;;11.46;78.77
818;BME280;391;51.052;6.954;2023-04-30T00:28:07;101536.78;;;11.47;78.62
818;BME280;391;51.052;6.954;2023-04-30T00:30:11;101532.31;;;11.45;78.79
818;BME280;391;51.052;6.954;2023-04-30T00:32:15;101532.44;;;11.48;78.69
818;BME280;391;51.052;6.954;2023-04-30T00:34:18;101532.13;;;11.40;78.41
818;BME280;391;51.052;6.954;2023-04-30T00:36:22;101541.75;;;11.41;78.78
818;BME280;391;51.052;6.954;2023-04-30T00:38:25;101549.59;;;11.41;78.30
818;BME280;391;51.052;6.954;2023-04-30T00:40:29;101540.69;;;11.36;78.39
818;BME280;391;51.052;6.954;2023-04-30T00:42:32;101550.06;;;11.31;78.07
818;BME280;391;51.052;6.954;2023-04-30T00:44:37;101542.78;;;11.23;78.22
818;BME280;391;51.052;6.954;2023-04-30T00:46:40;101485.50;;;10.83;78.33
818;BME280;391;51.052;6.954;2023-04-30T00:48:44;101555.53;;;11.15;78.58
818;BME280;391;51.052;6.954;2023-04-30T00:50:48;101558.13;;;11.15;78.88
818;BME280;391;51.052;6.954;2023-04-30T00:52:51;101549.25;;;11.10;78.47
818;BME280;391;51.052;6.954;2023-04-30T00:54:55;101561.56;;;11.14;78.77
818;BME280;391;51.052;6.954;2023-04-30T00:56:58;101554.63;;;11.14;78.88
818;BME280;391;51.052;6.954;2023-04-30T00:59:02;101556.41;;;11.15;78.58
818;BME280;391;51.052;6.954;2023-04-30T01:01:07;101529.84;;;11.03;78.58
818;BME280;391;51.052;6.954;2023-04-30T01:03:11;101518.97;;;10.93;78.56
818;BME280;391;51.052;6.954;2023-04-30T01:05:15;101561.63;;;11.15;78.19
818;BME280;391;51.052;6.954;2023-04-30T01:07:19;101555.41;;;11.12;78.42
818;BME280;391;51.052;6.954;2023-04-30T01:09:22;101558.13;;;11.15;78.54
818;BME280;391;51.052;6.954;2023-04-30T01:11:33;101549.28;;;11.11;77.90
818;BME280;391;51.052;6.954;2023-04-30T01:13:48;101557.19;;;11.13;77.92
818;BME280;391;51.052;6.954;2023-04-30T01:15:56;101536.88;;;11.06;77.74
818;BME280;391;51.052;6.954;2023-04-30T01:18:06;101484.13;;;10.70;78.00
818;BME280;391;51.052;6.954;2023-04-30T01:20:12;101542.03;;;11.04;78.06
818;BME280;391;51.052;6.954;2023-04-30T01:22:29;101544.53;;;11.01;78.10
818;BME280;391;51.052;6.954;2023-04-30T01:25:04;101549.94;;;11.06;77.90
818;BME280;391;51.052;6.954;2023-04-30T01:27:18;101545.28;;;10.99;77.63
818;BME280;391;51.052;6.954;2023-04-30T01:29:27;101553.13;;;10.99;77.55
818;BME280;391;51.052;6.954;2023-04-30T01:31:31;101542.56;;;10.96;78.01
818;BME280;391;51.052;6.954;2023-04-30T01:33:35;101547.78;;;10.96;77.34
818;BME280;391;51.052;6.954;2023-04-30T01:35:59;101540.72;;;10.93;77.61
818;BME280;391;51.052;6.954;2023-04-30T01:38:09;101544.81;;;10.87;77.55
818;BME280;391;51.052;6.954;2023-04-30T01:40:23;101539.53;;;10.85;77.38
818;BME280;391;51.052;6.954;2023-04-30T01:42:34;101549.91;;;10.84;77.60
818;BME280;391;51.052;6.954;2023-04-30T01:44:50;101540.28;;;10.83;77.78
818;BME280;391;51.052;6.954;2023-04-30T01:47:02;101539.16;;;10.76;77.05
818;BME280;391;51.052;6.954;2023-04-30T01:49:13;101537.97;;;10.68;77.53
818;BME280;391;51.052;6.954;2023-04-30T01:51:23;101535.59;;;10.53;77.32
818;BME280;391;51.052;6.954;2023-04-30T01:53:44;101541.25;;;10.43;77.46
818;BME280;391;51.052;6.954;2023-04-30T01:55:50;101538.34;;;10.36;77.96
818;BME280;391;51.052;6.954;2023-04-30T01:58:00;101531.19;;;10.32;77.75
818;BME280;391;51.052;6.954;2023-04-30T02:00:06;101527.81;;;10.34;78.08
818;BME280;391;51.052;6.954;2023-04-30T02:02:15;101538.59;;;10.42;78.29
818;BME280;391;51.052;6.954;2023-04-30T02:04:18;101541.13;;;10.40;78.02
818;BME280;391;51.052;6.954;2023-04-30T02:06:22;101546.28;;;10.39;77.64
818;BME280;391;51.052;6.954;2023-04-30T02:08:29;101541.97;;;10.39;78.16
818;BME280;391;51.052;6.954;2023-04-30T02:10:32;101548.13;;;10.41;78.05
818;BME280;391;51.052;6.954;2023-04-30T02:12:37;101531.53;;;10.39;77.59
818;BME280;391;51.052;6.954;2023-04-30T02:14:41;101550.59;;;10.38;78.02
818;BME280;391;51.052;6.954;2023-04-30T02:16:45;101541.00;;;10.37;77.75
818;BME280;391;51.052;6.954;2023-04-30T02:18:50;101548.81;;;10.37;77.64
818;BME280;391;51.052;6.954;2023-04-30T02:20:54;101546.03;;;10.33;78.26
818;BME280;391;51.052;6.954;2023-04-30T02:22:57;101543.97;;;10.26;78.33
818;BME280;391;51.052;6.954;2023-04-30T02:25:00;101552.59;;;10.25;78.05
818;BME280;391;51.052;6.954;2023-04-30T02:27:04;101539.28;;;10.17;78.23
818;BME280;391;51.052;6.954;2023-04-30T02:29:07;101544.59;;;10.20;78.13
818;BME280;391;51.052;6.954;2023-04-30T02:31:12;101551.56;;;10.21;78.27
818;BME280;391;51.052;6.954;2023-04-30T02:33:16;101554.91;;;10.17;78.12
818;BME280;391;51.052;6.954;2023-04-30T02:35:20;101560.94;;;10.16;77.95
818;BME280;391;51.052;6.954;2023-04-30T02:37:23;101548.72;;;10.15;77.98
818;BME280;391;51.052;6.954;2023-04-30T02:39:27;101553.13;;;10.16;77.67
818;BME280;391;51.052;6.954;2023-04-30T02:41:30;101553.38;;;10.22;78.20
818;BME280;391;51.052;6.954;2023-04-30T02:43:34;101451.06;;;9.67;77.97
818;BME280;391;51.052;6.954;2023-04-30T02:45:37;101549.88;;;10.22;77.50
818;BME280;391;51.052;6.954;2023-04-30T02:47:40;101549.19;;;10.26;77.38
818;BME280;391;51.052;6.954;2023-04-30T02:49:46;101548.38;;;10.27;77.32
818;BME280;391;51.052;6.954;2023-04-30T02:51:49;101553.63;;;10.28;77.88
818;BME280;391;51.052;6.954;2023-04-30T02:53:52;101555.47;;;10.11;77.38
818;BME280;391;51.052;6.954;2023-04-30T02:55:56;101550.97;;;10.07;77.83
818;BME280;391;51.052;6.954;2023-04-30T02:58:00;101540.34;;;10.03;77.51
818;BME280;391;51.052;6.954;2023-04-30T03:00:04;101550.97;;;10.07;77.36
818;BME280;391;51.052;6.954;2023-04-30T03:02:08;101557.09;;;10.08;77.29
818;BME280;391;51.052;6.954;2023-04-30T03:04:11;101548.84;;;9.99;77.21
818;BME280;391;51.052;6.954;2023-04-30T03:06:16;101555.16;;;10.04;77.07
818;BME280;391;51.052;6.954;2023-04-30T03:08:20;101560.41;;;10.05;76.84
818;BME280;391;51.052;6.954;2023-04-30T03:10:23;101562.97;;;10.04;77.03
818;BME280;391;51.052;6.954;2023-04-30T03:12:27;101558.53;;;10.01;76.96
818;BME280;391;51.052;6.954;2023-04-30T03:14:30;101553.91;;;9.96;76.98
818;BME280;391;51.052;6.954;2023-04-30T03:16:34;101559.13;;;9.96;77.03
818;BME280;391;51.052;6.954;2023-04-30T03:18:37;101561.41;;;9.88;77.22
818;BME280;391;51.052;6.954;2023-04-30T03:20:41;101559.59;;;9.87;77.00
818;BME280;391;51.052;6.954;2023-04-30T03:22:46;101553.06;;;9.76;77.15
818;BME280;391;51.052;6.954;2023-04-30T03:24:49;101562.63;;;9.77;77.25
818;BME280;391;51.052;6.954;2023-04-30T03:26:53;101562.44;;;9.73;77.38
818;BME280;391;51.052;6.954;2023-04-30T03:28:57;101564.28;;;9.75;76.80
818;BME280;391;51.052;6.954;2023-04-30T03:31:02;101558.97;;;9.74;76.83
818;BME280;391;51.052;6.954;2023-04-30T03:33:07;101562.34;;;9.71;76.82
818;BME280;391;51.052;6.954;2023-04-30T03:35:11;101550.09;;;9.69;77.18
818;BME280;391;51.052;6.954;2023-04-30T03:37:14;101550.28;;;9.73;77.54
818;BME280;391;51.052;6.954;2023-04-30T03:39:19;101558.78;;;9.69;77.51
818;BME280;391;51.052;6.954;2023-04-30T03:41:22;101549.94;;;9.66;77.18
818;BME280;391;51.052;6.954;2023-04-30T03:43:26;101552.69;;;9.69;77.48
818;BME280;391;51.052;6.954;2023-04-30T03:45:29;101559.75;;;9.71;77.70
818;BME280;391;51.052;6.954;2023-04-30T03:47:34;101561.44;;;9.71;76.95
818;BME280;391;51.052;6.954;2023-04-30T03:49:37;101505.81;;;9.30;77.57
818;BME280;391;51.052;6.954;2023-04-30T03:51:41;101562.75;;;9.61;77.06
818;BME280;391;51.052;6.954;2023-04-30T03:53:45;101548.63;;;9.56;77.29
818;BME280;391;51.052;6.954;2023-04-30T03:55:50;101552.00;;;9.53;76.89
818;BME280;391;51.052;6.954;2023-04-30T03:57:53;101560.00;;;9.58;77.32
818;BME280;391;51.052;6.954;2023-04-30T03:59:57;101542.50;;;9.36;77.20
818;BME280;391;51.052;6.954;2023-04-30T04:02:01;101561.91;;;9.43;77.06
818;BME280;391;51.052;6.954;2023-04-30T04:04:04;101554.19;;;9.44;77.43
818;BME280;391;51.052;6.954;2023-04-30T04:06:08;101564.78;;;9.49;77.24
818;BME280;391;51.052;6.954;2023-04-30T04:08:11;101560.53;;;9.51;77.02
818;BME280;391;51.052;6.954;2023-04-30T04:10:16;101555.31;;;9.51;77.04
818;BME280;391;51.052;6.954;2023-04-30T04:12:21;101557.06;;;9.50;77.62
818;BME280;391;51.052;6.954;2023-04-30T04:14:31;101554.66;;;9.55;77.35
818;BME280;391;51.052;6.954;2023-04-30T04:16:38;101561.38;;;9.50;77.56
818;BME280;391;51.052;6.954;2023-04-30T04:18:47;101557.38;;;9.39;76.91
818;BME280;391;51.052;6.954;2023-04-30T04:20:54;101561.88;;;9.24;77.27
818;BME280;391;51.052;6.954;2023-04-30T04:23:00;101560.00;;;9.21;77.74
818;BME280;391;51.052;6.954;2023-04-30T04:25:04;101563.84;;;9.29;77.39
818;BME280;391;51.052;6.954;2023-04-30T04:27:09;101565.88;;;9.17;77.75
818;BME280;391;51.052;6.954;2023-04-30T04:29:14;101578.38;;;8.89;77.99
818;BME280;391;51.052;6.954;2023-04-30T04:31:17;101580.69;;;8.83;78.21
818;BME280;391;51.052;6.954;2023-04-30T04:33:21;101582.69;;;8.88;78.39
818;BME280;391;51.052;6.954;2023-04-30T04:35:25;101579.34;;;8.91;78.34
818;BME280;391;51.052;6.954;2023-04-30T04:37:28;101579.56;;;8.95;78.03
818;BME280;391;51.052;6.954;2023-04-30T04:39:32;101579.84;;;8.84;78.46
818;BME280;391;51.052;6.954;2023-04-30T04:41:39;101549.31;;;8.62;78.49
818;BME280;391;51.052;6.954;2023-04-30T04:43:42;101578.69;;;8.77;78.35
818;BME280;391;51.052;6.954;2023-04-30T04:45:49;101467.63;;;8.23;78.60
818;BME280;391;51.052;6.954;2023-04-30T04:47:53;101571.69;;;8.94;78.41
818;BME280;391;51.052;6.954;2023-04-30T04:49:57;101576.53;;;9.04;78.45
818;BME280;391;51.052;6.954;2023-04-30T04:52:00;101573.13;;;9.05;78.10
818;BME280;391;51.052;6.954;2023-04-30T04:54:04;101572.13;;;9.03;78.35
818;BME280;391;51.052;6.954;2023-04-30T04:56:07;101576.47;;;9.02;78.77
818;BME280;391;51.052;6.954;2023-04-30T04:58:11;101581.88;;;9.07;78.34
818;BME280;391;51.052;6.954;2023-04-30T05:00:14;101580.00;;;9.04;78.40
818;BME280;391;51.052;6.954;2023-04-30T05:02:20;101577.50;;;9.06;78.66
818;BME280;391;51.052;6.954;2023-04-30T05:04:25;101574.53;;;8.98;78.52
818;BME280;391;51.052;6.954;2023-04-30T05:06:29;101576.97;;;8.95;78.85
818;BME280;391;51.052;6.954;2023-04-30T05:08:34;101574.81;;;9.04;79.12
818;BME280;391;51.052;6.954;2023-04-30T05:10:39;101578.47;;;9.08;78.93
818;BME280;391;51.052;6.954;2023-04-30T05:12:42;101575.47;;;9.18;78.86
818;BME280;391;51.052;6.954;2023-04-30T05:14:46;101547.00;;;9.03;79.05
818;BME280;391;51.052;6.954;2023-04-30T05:16:50;101575.41;;;9.17;79.37
818;BME280;391;51.052;6.954;2023-04-30T05:18:55;101579.28;;;9.25;79.63
818;BME280;391;51.052;6.954;2023-04-30T05:20:58;101580.47;;;9.31;79.47
818;BME280;391;51.052;6.954;2023-04-30T05:23:02;101599.38;;;9.29;79.42
818;BME280;391;51.052;6.954;2023-04-30T05:25:06;101567.38;;;9.12;79.32
818;BME280;391;51.052;6.954;2023-04-30T05:27:09;101601.25;;;9.14;80.23
818;BME280;391;51.052;6.954;2023-04-30T05:29:13;101486.19;;;8.47;80.28
818;BME280;391;51.052;6.954;2023-04-30T05:31:17;101598.59;;;9.30;80.62
818;BME280;391;51.052;6.954;2023-04-30T05:33:22;101600.94;;;9.43;80.61
818;BME280;391;51.052;6.954;2023-04-30T05:35:27;101608.56;;;9.57;80.30
818;BME280;391;51.052;6.954;2023-04-30T05:37:31;101605.44;;;9.65;80.47
818;BME280;391;51.052;6.954;2023-04-30T05:39:34;101605.66;;;9.69;80.55
818;BME280;391;51.052;6.954;2023-04-30T05:41:38;101617.69;;;9.85;80.78
818;BME280;391;51.052;6.954;2023-04-30T05:43:41;101611.94;;;9.92;80.54
818;BME280;391;51.052;6.954;2023-04-30T05:45:45;101620.34;;;10.05;80.35
818;BME280;391;51.052;6.954;2023-04-30T05:47:48;101619.97;;;10.16;80.27
818;BME280;391;51.052;6.954;2023-04-30T05:49:52;101603.56;;;10.18;79.97
818;BME280;391;51.052;6.954;2023-04-30T05:51:57;101617.09;;;10.29;79.89
818;BME280;391;51.052;6.954;2023-04-30T05:54:01;101623.72;;;10.41;79.83
818;BME280;391;51.052;6.954;2023-04-30T05:56:04;101623.28;;;10.51;79.93
818;BME280;391;51.052;6.954;2023-04-30T05:58:08;101627.06;;;10.58;80.22
818;BME280;391;51.052;6.954;2023-04-30T06:00:13;101591.06;;;10.49;79.92
818;BME280;391;51.052;6.954;2023-04-30T06:02:17;101625.06;;;10.72;80.11
818;BME280;391;51.052;6.954;2023-04-30T06:04:20;101627.06;;;10.79;79.72
818;BME280;391;51.052;6.954;2023-04-30T06:06:24;101625.56;;;10.84;79.91
818;BME280;391;51.052;6.954;2023-04-30T06:08:28;101629.31;;;10.90;80.10
818;BME280;391;51.052;6.954;2023-04-30T06:10:32;101623.53;;;10.97;79.98
818;BME280;391;51.052;6.954;2023-04-30T06:12:36;101592.53;;;10.84;79.56
818;BME280;391;51.052;6.954;2023-04-30T06:14:40;101625.16;;;10.95;79.40
818;BME280;391;51.052;6.954;2023-04-30T06:16:46;101579.59;;;10.67;78.97
818;BME280;391;51.052;6.954;2023-04-30T06:18:50;101632.22;;;10.77;79.18
818;BME280;391;51.052;6.954;2023-04-30T06:20:55;101613.47;;;10.86;79.35
818;BME280;391;51.052;6.954;2023-04-30T06:22:58;101618.81;;;10.89;79.00
818;BME280;391;51.052;6.954;2023-04-30T06:25:06;101600.50;;;10.87;79.11
818;BME280;391;51.052;6.954;2023-04-30T06:27:11;101582.72;;;10.79;79.00
818;BME280;391;51.052;6.954;2023-04-30T06:29:14;101600.28;;;11.03;78.85
818;BME280;391;51.052;6.954;2023-04-30T06:31:18;101606.13;;;11.19;78.47
818;BME280;391;51.052;6.954;2023-04-30T06:33:21;101610.78;;;11.05;78.08
818;BME280;391;51.052;6.954;2023-04-30T06:35:25;101609.50;;;10.95;78.09
818;BME280;391;51.052;6.954;2023-04-30T06:37:28;101601.88;;;11.00;78.30
818;BME280;391;51.052;6.954;2023-04-30T06:39:36;101613.63;;;11.11;78.48
818;BME280;391;51.052;6.954;2023-04-30T06:41:41;101605.31;;;11.20;77.79
818;BME280;391;51.052;6.954;2023-04-30T06:43:45;101604.88;;;11.31;77.85
818;BME280;391;51.052;6.954;2023-04-30T06:45:48;101611.94;;;11.34;77.48
818;BME280;391;51.052;6.954;2023-04-30T06:47:53;101604.56;;;11.24;77.22
818;BME280;391;51.052;6.954;2023-04-30T06:49:58;101604.00;;;11.31;77.61
818;BME280;391;51.052;6.954;2023-04-30T06:52:01;101604.06;;;11.32;77.15
818;BME280;391;51.052;6.954;2023-04-30T06:54:07;101605.91;;;11.35;76.95
818;BME280;391;51.052;6.954;2023-04-30T06:56:10;101600.81;;;11.38;77.10
818;BME280;391;51.052;6.954;2023-04-30T06:58:15;101591.28;;;11.40;77.26
818;BME280;391;51.052;6.954;2023-04-30T07:00:19;101608.22;;;11.49;77.08
818;BME280;391;51.052;6.954;2023-04-30T07:02:23;101620.56;;;11.53;76.85
818;BME280;391;51.052;6.954;2023-04-30T07:04:27;101616.28;;;11.55;77.04
818;BME280;391;51.052;6.954;2023-04-30T07:06:30;101589.03;;;11.49;76.74
818;BME280;391;51.052;6.954;2023-04-30T07:08:34;101618.66;;;11.70;76.41
818;BME280;391;51.052;6.954;2023-04-30T07:10:37;101611.88;;;11.75;76.56
818;BME280;391;51.052;6.954;2023-04-30T07:12:41;101615.59;;;11.82;76.41
818;BME280;391;51.052;6.954;2023-04-30T07:14:46;101613.22;;;11.88;76.04
818;BME280;391;51.052;6.954;2023-04-30T07:16:50;101609.81;;;11.90;75.90
818;BME280;391;51.052;6.954;2023-04-30T07:18:53;101575.03;;;11.69;75.73
818;BME280;391;51.052;6.954;2023-04-30T07:20:57;101613.41;;;11.92;75.82
818;BME280;391;51.052;6.954;2023-04-30T07:23:00;101613.56;;;11.97;75.79
818;BME280;391;51.052;6.954;2023-04-30T07:25:05;101610.13;;;11.98;75.66
818;BME280;391;51.052;6.954;2023-04-30T07:27:08;101608.50;;;12.01;75.62
818;BME280;391;51.052;6.954;2023-04-30T07:29:12;101603.47;;;12.06;75.57
818;BME280;391;51.052;6.954;2023-04-30T07:31:16;101622.09;;;12.15;75.50
818;BME280;391;51.052;6.954;2023-04-30T07:33:20;101603.94;;;12.19;75.19
818;BME280;391;51.052;6.954;2023-04-30T07:35:24;101612.06;;;12.27;75.00
818;BME280;391;51.052;6.954;2023-04-30T07:37:28;101611.28;;;12.30;75.02
818;BME280;391;51.052;6.954;2023-04-30T07:39:31;101608.66;;;12.30;75.09
818;BME280;391;51.052;6.954;2023-04-30T07:41:35;101614.13;;;12.36;74.97
818;BME280;391;51.052;6.954;2023-04-30T07:43:38;101592.97;;;12.30;74.45
818;BME280;391;51.052;6.954;2023-04-30T07:45:42;101615.22;;;12.42;73.94
818;BME280;391;51.052;6.954;2023-04-30T07:47:47;101607.44;;;12.44;73.93
818;BME280;391;51.052;6.954;2023-04-30T07:49:51;101599.75;;;12.48;73.62
818;BME280;391;51.052;6.954;2023-04-30T07:51:55;101606.88;;;12.52;72.74
818;BME280;391;51.052;6.954;2023-04-30T07:53:59;101611.47;;;12.59;72.63
818;BME280;391;51.052;6.954;2023-04-30T07:56:03;101602.84;;;12.62;72.20
818;BME280;391;51.052;6.954;2023-04-30T07:58:06;101614.63;;;12.74;71.98
818;BME280;391;51.052;6.954;2023-04-30T08:00:10;101612.31;;;12.84;71.96
818;BME280;391;51.052;6.954;2023-04-30T08:02:14;101590.66;;;12.89;71.70
818;BME280;391;51.052;6.954;2023-04-30T08:04:20;101607.81;;;13.05;71.58
818;BME280;391;51.052;6.954;2023-04-30T08:06:24;101595.69;;;13.08;71.40
818;BME280;391;51.052;6.954;2023-04-30T08:08:28;101591.47;;;13.12;70.84
818;BME280;391;51.052;6.954;2023-04-30T08:10:32;101598.69;;;13.19;70.25
818;BME280;391;51.052;6.954;2023-04-30T08:12:36;101590.81;;;13.19;70.07
818;BME280;391;51.052;6.954;2023-04-30T08:14:40;101610.50;;;13.33;69.74
818;BME280;391;51.052;6.954;2023-04-30T08:16:43;101580.44;;;13.22;69.20
818;BME280;391;51.052;6.954;2023-04-30T08:18:47;101615.19;;;13.43;68.83
818;BME280;391;51.052;6.954;2023-04-30T08:20:52;101599.50;;;13.45;68.73
818;BME280;391;51.052;6.954;2023-04-30T08:22:55;101594.06;;;13.39;68.48
818;BME280;391;51.052;6.954;2023-04-30T08:24:59;101613.78;;;13.54;68.52
818;BME280;391;51.052;6.954;2023-04-30T08:27:04;101604.31;;;13.59;67.66
818;BME280;391;51.052;6.954;2023-04-30T08:29:07;101602.91;;;13.70;67.58
818;BME280;391;51.052;6.954;2023-04-30T08:31:11;101609.25;;;13.78;67.29
818;BME280;391;51.052;6.954;2023-04-30T08:33:14;101611.09;;;13.81;67.26
818;BME280;391;51.052;6.954;2023-04-30T08:35:18;101603.25;;;13.83;67.03
818;BME280;391;51.052;6.954;2023-04-30T08:37:23;101607.84;;;13.90;66.89
818;BME280;391;51.052;6.954;2023-04-30T08:39:27;101600.16;;;13.96;66.93
818;BME280;391;51.052;6.954;2023-04-30T08:41:31;101601.31;;;14.05;67.06
818;BME280;391;51.052;6.954;2023-04-30T08:43:35;101609.41;;;14.13;66.99
818;BME280;391;51.052;6.954;2023-04-30T08:45:39;101603.34;;;14.15;66.86
818;BME280;391;51.052;6.954;2023-04-30T08:47:44;101590.31;;;14.18;67.70
818;BME280;391;51.052;6.954;2023-04-30T08:49:47;101597.75;;;14.33;68.23
818;BME280;391;51.052;6.954;2023-04-30T08:51:51;101597.47;;;14.55;68.00
818;BME280;391;51.052;6.954;2023-04-30T08:53:56;101575.41;;;14.47;67.24
818;BME280;391;51.052;6.954;2023-04-30T08:56:00;101569.09;;;14.41;66.05
818;BME280;391;51.052;6.954;2023-04-30T08:58:03;101595.81;;;14.59;65.91
818;BME280;391;51.052;6.954;2023-04-30T09:00:08;101595.97;;;14.65;65.45
818;BME280;391;51.052;6.954;2023-04-30T09:02:12;101591.69;;;14.68;65.04
818;BME280;391;51.052;6.954;2023-04-30T09:04:16;101587.50;;;14.75;64.28
818;BME280;391;51.052;6.954;2023-04-30T09:06:19;101584.94;;;14.76;63.68
818;BME280;391;51.052;6.954;2023-04-30T09:08:41;101587.63;;;14.79;63.54
818;BME280;391;51.052;6.954;2023-04-30T09:10:47;101590.50;;;14.90;63.33
818;BME280;391;51.052;6.954;2023-04-30T09:12:57;101587.03;;;14.91;62.56
818;BME280;391;51.052;6.954;2023-04-30T09:15:03;101580.25;;;14.99;62.70
818;BME280;391;51.052;6.954;2023-04-30T09:17:07;101573.34;;;15.03;63.43
818;BME280;391;51.052;6.954;2023-04-30T09:19:22;101585.13;;;15.20;62.55
818;BME280;391;51.052;6.954;2023-04-30T09:21:37;101577.44;;;15.27;62.04
818;BME280;391;51.052;6.954;2023-04-30T09:23:54;101572.38;;;15.38;61.54
818;BME280;391;51.052;6.954;2023-04-30T09:25:59;101577.97;;;15.50;60.10
818;BME280;391;51.052;6.954;2023-04-30T09:28:07;101575.63;;;15.64;59.58
818;BME280;391;51.052;6.954;2023-04-30T09:30:29;101567.38;;;15.87;59.39
818;BME280;391;51.052;6.954;2023-04-30T09:32:32;101552.63;;;15.96;59.85
818;BME280;391;51.052;6.954;2023-04-30T09:34:36;101564.38;;;16.11;58.27
818;BME280;391;51.052;6.954;2023-04-30T09:36:50;101567.28;;;16.26;57.78
818;BME280;391;51.052;6.954;2023-04-30T09:38:54;101560.41;;;16.33;57.39
818;BME280;391;51.052;6.954;2023-04-30T09:41:00;101570.31;;;16.46;56.82
818;BME280;391;51.052;6.954;2023-04-30T09:43:04;101558.81;;;16.42;56.46
818;BME280;391;51.052;6.954;2023-04-30T09:45:10;101556.88;;;16.32;56.31
818;BME280;391;51.052;6.954;2023-04-30T09:47:16;101541.09;;;16.34;56.62
818;BME280;391;51.052;6.954;2023-04-30T09:49:21;101553.88;;;16.59;56.13
818;BME280;391;51.052;6.954;2023-04-30T09:51:24;101551.63;;;16.80;55.02
818;BME280;391;51.052;6.954;2023-04-30T09:53:29;101557.06;;;16.91;53.49
818;BME280;391;51.052;6.954;2023-04-30T09:55:33;101554.69;;;17.08;53.04
818;BME280;391;51.052;6.954;2023-04-30T09:57:38;101549.63;;;17.21;52.34
818;BME280;391;51.052;6.954;2023-04-30T09:59:44;101536.56;;;17.30;52.16
818;BME280;391;51.052;6.954;2023-04-30T10:01:50;101552.56;;;17.42;50.78
818;BME280;391;51.052;6.954;2023-04-30T10:03:55;101548.25;;;17.48;50.59
818;BME280;391;51.052;6.954;2023-04-30T10:05:59;101540.31;;;17.46;49.64
818;BME280;391;51.052;6.954;2023-04-30T10:08:04;101520.13;;;17.50;49.92
818;BME280;391;51.052;6.954;2023-04-30T10:10:09;101542.47;;;17.73;49.91
818;BME280;391;51.052;6.954;2023-04-30T10:12:15;101537.34;;;17.83;49.82
818;BME280;391;51.052;6.954;2023-04-30T10:14:25;101533.22;;;18.10;48.82
818;BME280;391;51.052;6.954;2023-04-30T10:16:36;101536.97;;;18.33;47.57
818;BME280;391;51.052;6.954;2023-04-30T10:18:42;101537.22;;;18.54;46.56
818;BME280;391;51.052;6.954;2023-04-30T10:20:49;101537.41;;;18.72;45.79
818;BME280;391;51.052;6.954;2023-04-30T10:22:54;101538.31;;;18.77;43.88
818;BME280;391;51.052;6.954;2023-04-30T10:24:58;101486.06;;;18.46;43.37
818;BME280;391;51.052;6.954;2023-04-30T10:27:03;101537.50;;;18.84;43.83
818;BME280;391;51.052;6.954;2023-04-30T10:29:08;101534.94;;;18.99;44.67
818;BME280;391;51.052;6.954;2023-04-30T10:31:13;101531.59;;;19.20;44.61
818;BME280;391;51.052;6.954;2023-04-30T10:33:19;101535.19;;;19.30;44.20
818;BME280;391;51.052;6.954;2023-04-30T10:35:29;101535.13;;;19.22;43.82
818;BME280;391;51.052;6.954;2023-04-30T10:37:38;101519.94;;;18.94;43.41
818;BME280;391;51.052;6.954;2023-04-30T10:39:42;101526.00;;;18.81;43.96
818;BME280;391;51.052;6.954;2023-04-30T10:41:45;101518.88;;;18.69;42.98
818;BME280;391;51.052;6.954;2023-04-30T10:43:49;101517.31;;;18.98;43.58
818;BME280;391;51.052;6.954;2023-04-30T10:45:56;101510.41;;;19.17;43.39
818;BME280;391;51.052;6.954;2023-04-30T10:48:02;101516.63;;;19.21;43.16
818;BME280;391;51.052;6.954;2023-04-30T10:50:07;101521.81;;;19.12;43.52
818;BME280;391;51.052;6.954;2023-04-30T10:52:11;101513.69;;;18.86;43.55
818;BME280;391;51.052;6.954;2023-04-30T10:54:15;101506.69;;;18.92;44.48
818;BME280;391;51.052;6.954;2023-04-30T10:56:29;101504.19;;;19.08;44.04
818;BME280;391;51.052;6.954;2023-04-30T10:58:35;101462.78;;;19.13;44.58
818;BME280;391;51.052;6.954;2023-04-30T11:00:50;101497.50;;;19.69;43.16
818;BME280;391;51.052;6.954;2023-04-30T11:02:57;101475.44;;;19.77;43.04
818;BME280;391;51.052;6.954;2023-04-30T11:05:11;101496.69;;;19.91;42.97
818;BME280;391;51.052;6.954;2023-04-30T11:07:15;101472.81;;;19.74;41.97
818;BME280;391;51.052;6.954;2023-04-30T11:09:18;101508.13;;;19.91;40.90
818;BME280;391;51.052;6.954;2023-04-30T11:11:22;101489.50;;;19.61;41.33
818;BME280;391;51.052;6.954;2023-04-30T11:13:26;101492.09;;;19.43;41.58
818;BME280;391;51.052;6.954;2023-04-30T11:15:33;101470.00;;;19.39;41.80
818;BME280;391;51.052;6.954;2023-04-30T11:17:42;101474.38;;;19.36;41.37
818;BME280;391;51.052;6.954;2023-04-30T11:19:46;101483.13;;;19.27;41.65
818;BME280;391;51.052;6.954;2023-04-30T11:22:16;101487.69;;;19.51;41.84
818;BME280;391;51.052;6.954;2023-04-30T11:24:20;101487.84;;;19.89;41.66
818;BME280;391;51.052;6.954;2023-04-30T11:26:25;101482.59;;;20.08;40.73
818;BME280;391;51.052;6.954;2023-04-30T11:28:31;101473.75;;;19.99;40.73
818;BME280;391;51.052;6.954;2023-04-30T11:30:35;101470.22;;;20.11;40.67
818;BME280;391;51.052;6.954;2023-04-30T11:32:40;101479.03;;;20.05;40.04